Hovedside
METAR-TAF:

METAR-TAF

Lufthavner :

Kiruna, Sverige

Kiruna lufthavn

breddegrad: 67-49N, lengdegrad: 020-20E, høyde over havet: 452 m

Gjeldene værobservasjon

Denne rapporten ble laget for 37 minutter siden, klokken 20:20 UTC
Vind 21 kt fra Vest-nordvest
Temperatur -1°C
Luftfuktighet 69%
Trykk 1001 hPa
Sikt 10 km eller mer
ingen skyer under 1500 m og ingen bygeskyer

METAR: ESNQ 262020Z 30021KT CAVOK M01/M06 Q1001

Tid: 22:57 (20:57 UTC)

Varsel

Denne rapporten ble laget for 27 minutter siden, klokken 20:30 UTC
Varsel gyldig fra 26. klokken 21 UTC til 26. klokken 23 UTC
Vind 27 kt fra Vest-nordvest med vindkast opp mot 37 kt
Sikt 10 km eller mer
ingen skyer under 1500 m og ingen bygeskyer

TAF: ESNQ 262030Z 2621/2623 29027G37KT CAVOK

Værobservasjoner og værvarsel for over 4000 flyplasser (METAR- og TAF-rapporter).

Tilgjengelige stasjoner er representert av de røde og gule prikkene på kartet.

Hold musepekeren over prikken for å se navnet på stasjonen.

Klikk så for å se værobservasjoner og -varsler.

For å forandre kartet kan du klikke på den grønne knappen med svart kryss for å zoome inn, på den grønne knappen med strek for å zoome ut, eller på de grønne pilene for å se tilstøtende kart.


METAR-TAF: